sensor_id;sensor_type;location;lat;lon;timestamp;pressure;altitude;pressure_sealevel;temperature;humidity
11440;BME280;5776;51.814;4.510;2024-03-07T00:00:35;102655.94;;;6.45;100.00
11440;BME280;5776;51.814;4.510;2024-03-07T00:03:01;102652.63;;;6.43;100.00
11440;BME280;5776;51.814;4.510;2024-03-07T00:05:34;102656.34;;;6.42;100.00
11440;BME280;5776;51.814;4.510;2024-03-07T00:07:59;102660.31;;;6.39;100.00
11440;BME280;5776;51.814;4.510;2024-03-07T00:10:25;102664.88;;;6.39;100.00
11440;BME280;5776;51.814;4.510;2024-03-07T00:12:51;102664.25;;;6.37;100.00
11440;BME280;5776;51.814;4.510;2024-03-07T00:15:17;102661.78;;;6.35;100.00
11440;BME280;5776;51.814;4.510;2024-03-07T00:17:43;102663.66;;;6.35;100.00
11440;BME280;5776;51.814;4.510;2024-03-07T00:20:09;102667.41;;;6.34;100.00
11440;BME280;5776;51.814;4.510;2024-03-07T00:22:43;102663.25;;;6.31;100.00
11440;BME280;5776;51.814;4.510;2024-03-07T00:25:09;102661.59;;;6.30;100.00
11440;BME280;5776;51.814;4.510;2024-03-07T00:27:37;102668.88;;;6.30;100.00
11440;BME280;5776;51.814;4.510;2024-03-07T00:30:07;102662.88;;;6.27;100.00
11440;BME280;5776;51.814;4.510;2024-03-07T00:32:34;102659.56;;;6.25;100.00
11440;BME280;5776;51.814;4.510;2024-03-07T00:35:07;102655.22;;;6.24;100.00
11440;BME280;5776;51.814;4.510;2024-03-07T00:37:36;102659.13;;;6.22;100.00
11440;BME280;5776;51.814;4.510;2024-03-07T00:40:02;102660.19;;;6.21;100.00
11440;BME280;5776;51.814;4.510;2024-03-07T00:42:29;102651.28;;;6.20;100.00
11440;BME280;5776;51.814;4.510;2024-03-07T00:44:54;102656.88;;;6.19;100.00
11440;BME280;5776;51.814;4.510;2024-03-07T00:47:20;102651.72;;;6.17;100.00
11440;BME280;5776;51.814;4.510;2024-03-07T00:49:46;102655.44;;;6.16;100.00
11440;BME280;5776;51.814;4.510;2024-03-07T00:52:13;102654.81;;;6.14;100.00
11440;BME280;5776;51.814;4.510;2024-03-07T00:54:39;102649.41;;;6.14;100.00
11440;BME280;5776;51.814;4.510;2024-03-07T00:57:04;102649.84;;;6.11;100.00
11440;BME280;5776;51.814;4.510;2024-03-07T00:59:30;102649.84;;;6.11;100.00
11440;BME280;5776;51.814;4.510;2024-03-07T01:01:56;102649.22;;;6.09;100.00
11440;BME280;5776;51.814;4.510;2024-03-07T01:04:22;102644.88;;;6.08;100.00
11440;BME280;5776;51.814;4.510;2024-03-07T01:06:48;102642.19;;;6.08;100.00
11440;BME280;5776;51.814;4.510;2024-03-07T01:09:14;102645.31;;;6.05;100.00
11440;BME280;5776;51.814;4.510;2024-03-07T01:11:42;102643.66;;;6.04;100.00
11440;BME280;5776;51.814;4.510;2024-03-07T01:14:08;102648.22;;;6.03;100.00
11440;BME280;5776;51.814;4.510;2024-03-07T01:16:34;102644.09;;;6.01;100.00
11440;BME280;5776;51.814;4.510;2024-03-07T01:19:00;102647.84;;;6.00;100.00
11440;BME280;5776;51.814;4.510;2024-03-07T01:21:26;102641.81;;;5.98;100.00
11440;BME280;5776;51.814;4.510;2024-03-07T01:23:52;102641.19;;;5.96;100.00
11440;BME280;5776;51.814;4.510;2024-03-07T01:26:18;102651.16;;;5.95;100.00
11440;BME280;5776;51.814;4.510;2024-03-07T01:28:44;102641.59;;;5.93;100.00
11440;BME280;5776;51.814;4.510;2024-03-07T01:31:10;102631.84;;;5.92;100.00
11440;BME280;5776;51.814;4.510;2024-03-07T01:33:36;102632.06;;;5.90;100.00
11440;BME280;5776;51.814;4.510;2024-03-07T01:36:02;102632.25;;;5.89;100.00
11440;BME280;5776;51.814;4.510;2024-03-07T01:38:28;102627.09;;;5.87;100.00
11440;BME280;5776;51.814;4.510;2024-03-07T01:40:53;102625.44;;;5.86;100.00
11440;BME280;5776;51.814;4.510;2024-03-07T01:43:20;102627.50;;;5.84;100.00
11440;BME280;5776;51.814;4.510;2024-03-07T01:45:46;102632.06;;;5.83;100.00
11440;BME280;5776;51.814;4.510;2024-03-07T01:48:20;102622.34;;;5.82;100.00
11440;BME280;5776;51.814;4.510;2024-03-07T01:50:50;102629.59;;;5.82;100.00
11440;BME280;5776;51.814;4.510;2024-03-07T01:53:16;102623.38;;;5.81;100.00
11440;BME280;5776;51.814;4.510;2024-03-07T01:55:42;102627.13;;;5.80;100.00
11440;BME280;5776;51.814;4.510;2024-03-07T01:58:13;102624.41;;;5.80;100.00
11440;BME280;5776;51.814;4.510;2024-03-07T02:00:43;102618.19;;;5.80;100.00
11440;BME280;5776;51.814;4.510;2024-03-07T02:03:09;102606.78;;;5.78;100.00
11440;BME280;5776;51.814;4.510;2024-03-07T02:05:35;102610.31;;;5.78;100.00
11440;BME280;5776;51.814;4.510;2024-03-07T02:08:02;102616.75;;;5.77;100.00
11440;BME280;5776;51.814;4.510;2024-03-07T02:10:27;102605.97;;;5.77;100.00
11440;BME280;5776;51.814;4.510;2024-03-07T02:12:53;102607.00;;;5.76;100.00
11440;BME280;5776;51.814;4.510;2024-03-07T02:15:19;102603.47;;;5.76;100.00
11440;BME280;5776;51.814;4.510;2024-03-07T02:17:45;102606.41;;;5.74;100.00
11440;BME280;5776;51.814;4.510;2024-03-07T02:20:11;102601.22;;;5.73;100.00
11440;BME280;5776;51.814;4.510;2024-03-07T02:22:37;102602.03;;;5.73;100.00
11440;BME280;5776;51.814;4.510;2024-03-07T02:25:03;102602.22;;;5.72;100.00
11440;BME280;5776;51.814;4.510;2024-03-07T02:27:30;102596.25;;;5.70;100.00
11440;BME280;5776;51.814;4.510;2024-03-07T02:29:56;102596.03;;;5.71;100.00
11440;BME280;5776;51.814;4.510;2024-03-07T02:32:22;102592.69;;;5.69;100.00
11440;BME280;5776;51.814;4.510;2024-03-07T02:34:48;102584.84;;;5.68;100.00
11440;BME280;5776;51.814;4.510;2024-03-07T02:37:14;102593.97;;;5.67;100.00
11440;BME280;5776;51.814;4.510;2024-03-07T02:39:40;102587.75;;;5.66;100.00
11440;BME280;5776;51.814;4.510;2024-03-07T02:42:06;102584.44;;;5.64;100.00
11440;BME280;5776;51.814;4.510;2024-03-07T02:44:32;102582.78;;;5.63;100.00
11440;BME280;5776;51.814;4.510;2024-03-07T02:46:58;102582.78;;;5.63;100.00
11440;BME280;5776;51.814;4.510;2024-03-07T02:49:24;102579.47;;;5.61;100.00
11440;BME280;5776;51.814;4.510;2024-03-07T02:51:50;102579.69;;;5.59;100.00
11440;BME280;5776;51.814;4.510;2024-03-07T02:54:16;102569.94;;;5.58;100.00
11440;BME280;5776;51.814;4.510;2024-03-07T02:56:42;102577.19;;;5.58;100.00
11440;BME280;5776;51.814;4.510;2024-03-07T02:59:07;102587.38;;;5.56;100.00
11440;BME280;5776;51.814;4.510;2024-03-07T03:01:33;102578.66;;;5.54;100.00
11440;BME280;5776;51.814;4.510;2024-03-07T03:03:59;102583.22;;;5.53;100.00
11440;BME280;5776;51.814;4.510;2024-03-07T03:06:25;102586.16;;;5.52;100.00
11440;BME280;5776;51.814;4.510;2024-03-07T03:08:50;102584.47;;;5.51;100.00
11440;BME280;5776;51.814;4.510;2024-03-07T03:11:16;102580.75;;;5.52;100.00
11440;BME280;5776;51.814;4.510;2024-03-07T03:13:42;102568.53;;;5.49;100.00
11440;BME280;5776;51.814;4.510;2024-03-07T03:16:09;102568.53;;;5.49;100.00
11440;BME280;5776;51.814;4.510;2024-03-07T03:18:38;102568.72;;;5.48;100.00
11440;BME280;5776;51.814;4.510;2024-03-07T03:21:04;102573.31;;;5.47;100.00
11440;BME280;5776;51.814;4.510;2024-03-07T03:23:30;102570.81;;;5.46;100.00
11440;BME280;5776;51.814;4.510;2024-03-07T03:25:56;102565.41;;;5.46;100.00
11440;BME280;5776;51.814;4.510;2024-03-07T03:28:23;102557.53;;;5.44;100.00
11440;BME280;5776;51.814;4.510;2024-03-07T03:30:49;102548.84;;;5.42;100.00
11440;BME280;5776;51.814;4.510;2024-03-07T03:33:18;102558.78;;;5.41;100.00
11440;BME280;5776;51.814;4.510;2024-03-07T03:35:44;102558.78;;;5.41;100.00
11440;BME280;5776;51.814;4.510;2024-03-07T03:38:10;102554.44;;;5.40;100.00
11440;BME280;5776;51.814;4.510;2024-03-07T03:40:36;102554.44;;;5.40;100.00
11440;BME280;5776;51.814;4.510;2024-03-07T03:43:02;102552.81;;;5.39;100.00
11440;BME280;5776;51.814;4.510;2024-03-07T03:45:28;102554.66;;;5.39;100.00
11440;BME280;5776;51.814;4.510;2024-03-07T03:47:54;102553.00;;;5.38;100.00
11440;BME280;5776;51.814;4.510;2024-03-07T03:50:20;102556.75;;;5.37;100.00
11440;BME280;5776;51.814;4.510;2024-03-07T03:52:49;102550.50;;;5.36;100.00
11440;BME280;5776;51.814;4.510;2024-03-07T03:55:15;102547.22;;;5.34;100.00
11440;BME280;5776;51.814;4.510;2024-03-07T03:57:42;102546.38;;;5.34;100.00
11440;BME280;5776;51.814;4.510;2024-03-07T04:00:09;102543.91;;;5.32;100.00
11440;BME280;5776;51.814;4.510;2024-03-07T04:02:40;102541.41;;;5.31;100.00
11440;BME280;5776;51.814;4.510;2024-03-07T04:05:06;102535.19;;;5.30;100.00
11440;BME280;5776;51.814;4.510;2024-03-07T04:07:32;102538.94;;;5.29;100.00
11440;BME280;5776;51.814;4.510;2024-03-07T04:09:58;102549.72;;;5.29;100.00
11440;BME280;5776;51.814;4.510;2024-03-07T04:12:24;102546.41;;;5.27;100.00
11440;BME280;5776;51.814;4.510;2024-03-07T04:14:53;102546.41;;;5.27;100.00
11440;BME280;5776;51.814;4.510;2024-03-07T04:17:20;102543.28;;;5.24;100.00
11440;BME280;5776;51.814;4.510;2024-03-07T04:19:46;102542.25;;;5.25;100.00
11440;BME280;5776;51.814;4.510;2024-03-07T04:22:12;102536.25;;;5.23;100.00
11440;BME280;5776;51.814;4.510;2024-03-07T04:24:38;102533.75;;;5.21;100.00
11440;BME280;5776;51.814;4.510;2024-03-07T04:27:04;102534.81;;;5.20;100.00
11440;BME280;5776;51.814;4.510;2024-03-07T04:29:31;102539.38;;;5.19;100.00
11440;BME280;5776;51.814;4.510;2024-03-07T04:31:58;102543.09;;;5.18;100.00
11440;BME280;5776;51.814;4.510;2024-03-07T04:34:25;102536.25;;;5.16;100.00
11440;BME280;5776;51.814;4.510;2024-03-07T04:36:51;102538.13;;;5.15;100.00
11440;BME280;5776;51.814;4.510;2024-03-07T04:39:17;102536.69;;;5.13;100.00
11440;BME280;5776;51.814;4.510;2024-03-07T04:42:04;102540.63;;;5.10;100.00
11440;BME280;5776;51.814;4.510;2024-03-07T04:44:32;102538.97;;;5.09;100.00
11440;BME280;5776;51.814;4.510;2024-03-07T04:46:59;102529.03;;;5.10;100.00
11440;BME280;5776;51.814;4.510;2024-03-07T04:49:27;102529.03;;;5.10;100.00
11440;BME280;5776;51.814;4.510;2024-03-07T04:51:55;102527.34;;;5.09;100.00
11440;BME280;5776;51.814;4.510;2024-03-07T04:54:22;102521.16;;;5.08;100.00
11440;BME280;5776;51.814;4.510;2024-03-07T04:56:50;102529.47;;;5.07;100.00
11440;BME280;5776;51.814;4.510;2024-03-07T04:59:17;102530.28;;;5.07;100.00
11440;BME280;5776;51.814;4.510;2024-03-07T05:01:44;102525.31;;;5.04;100.00
11440;BME280;5776;51.814;4.510;2024-03-07T05:04:12;102527.16;;;5.04;100.00
11440;BME280;5776;51.814;4.510;2024-03-07T05:06:38;102530.91;;;5.03;100.00
11440;BME280;5776;51.814;4.510;2024-03-07T05:09:06;102531.94;;;5.02;100.00
11440;BME280;5776;51.814;4.510;2024-03-07T05:11:33;102523.25;;;5.00;100.00
11440;BME280;5776;51.814;4.510;2024-03-07T05:14:00;102534.84;;;5.00;100.00
11440;BME280;5776;51.814;4.510;2024-03-07T05:16:29;102536.09;;;4.97;100.00
11440;BME280;5776;51.814;4.510;2024-03-07T05:18:55;102536.91;;;4.98;100.00
11440;BME280;5776;51.814;4.510;2024-03-07T05:21:28;102532.56;;;4.97;100.00
11440;BME280;5776;51.814;4.510;2024-03-07T05:24:04;102531.94;;;4.95;100.00
11440;BME280;5776;51.814;4.510;2024-03-07T05:26:31;102545.59;;;4.93;100.00
11440;BME280;5776;51.814;4.510;2024-03-07T05:29:02;102530.69;;;4.91;100.00
11440;BME280;5776;51.814;4.510;2024-03-07T05:31:32;102526.38;;;4.90;100.00
11440;BME280;5776;51.814;4.510;2024-03-07T05:34:00;102527.38;;;4.89;100.00
11440;BME280;5776;51.814;4.510;2024-03-07T05:36:32;102530.94;;;4.89;100.00
11440;BME280;5776;51.814;4.510;2024-03-07T05:38:58;102534.00;;;4.86;100.00
11440;BME280;5776;51.814;4.510;2024-03-07T05:41:35;102524.91;;;4.87;100.00
11440;BME280;5776;51.814;4.510;2024-03-07T05:44:01;102525.13;;;4.86;100.00
11440;BME280;5776;51.814;4.510;2024-03-07T05:46:27;102525.13;;;4.86;100.00
11440;BME280;5776;51.814;4.510;2024-03-07T05:48:53;102525.34;;;4.84;100.00
11440;BME280;5776;51.814;4.510;2024-03-07T05:51:22;102536.09;;;4.84;100.00
11440;BME280;5776;51.814;4.510;2024-03-07T05:53:48;102528.22;;;4.83;100.00
11440;BME280;5776;51.814;4.510;2024-03-07T05:56:14;102523.03;;;4.81;100.00
11440;BME280;5776;51.814;4.510;2024-03-07T05:58:40;102523.66;;;4.83;100.00
11440;BME280;5776;51.814;4.510;2024-03-07T06:01:06;102518.28;;;4.83;100.00
11440;BME280;5776;51.814;4.510;2024-03-07T06:03:34;102521.19;;;4.82;100.00
11440;BME280;5776;51.814;4.510;2024-03-07T06:06:00;102523.03;;;4.81;100.00
11440;BME280;5776;51.814;4.510;2024-03-07T06:08:26;102522.22;;;4.81;100.00
11440;BME280;5776;51.814;4.510;2024-03-07T06:10:52;102517.88;;;4.80;100.00
11440;BME280;5776;51.814;4.510;2024-03-07T06:13:18;102518.09;;;4.85;100.00
11440;BME280;5776;51.814;4.510;2024-03-07T06:15:46;102514.56;;;4.84;100.00
11440;BME280;5776;51.814;4.510;2024-03-07T06:18:12;102511.25;;;4.82;100.00
11440;BME280;5776;51.814;4.510;2024-03-07T06:20:42;102519.34;;;4.82;100.00
11440;BME280;5776;51.814;4.510;2024-03-07T06:23:08;102516.84;;;4.81;100.00
11440;BME280;5776;51.814;4.510;2024-03-07T06:25:35;102517.66;;;4.81;100.00
11440;BME280;5776;51.814;4.510;2024-03-07T06:28:13;102512.28;;;4.81;100.00
11440;BME280;5776;51.814;4.510;2024-03-07T06:30:44;102512.06;;;4.83;100.00
11440;BME280;5776;51.814;4.510;2024-03-07T06:33:11;102523.03;;;4.81;100.00
11440;BME280;5776;51.814;4.510;2024-03-07T06:35:38;102513.94;;;4.82;100.00
11440;BME280;5776;51.814;4.510;2024-03-07T06:38:05;102516.00;;;4.80;100.00
11440;BME280;5776;51.814;4.510;2024-03-07T06:40:31;102522.44;;;4.79;100.00
11440;BME280;5776;51.814;4.510;2024-03-07T06:42:59;102512.69;;;4.78;100.00
11440;BME280;5776;51.814;4.510;2024-03-07T06:45:25;102517.88;;;4.80;100.00
11440;BME280;5776;51.814;4.510;2024-03-07T06:47:52;102525.72;;;4.81;100.00
11440;BME280;5776;51.814;4.510;2024-03-07T06:50:20;102523.03;;;4.81;100.00
11440;BME280;5776;51.814;4.510;2024-03-07T06:52:47;102523.03;;;4.81;100.00
11440;BME280;5776;51.814;4.510;2024-03-07T06:55:15;102525.72;;;4.81;100.00
11440;BME280;5776;51.814;4.510;2024-03-07T06:57:43;102528.22;;;4.83;100.00
11440;BME280;5776;51.814;4.510;2024-03-07T07:00:13;102523.66;;;4.83;100.00
11440;BME280;5776;51.814;4.510;2024-03-07T07:02:40;102521.78;;;4.84;100.00
11440;BME280;5776;51.814;4.510;2024-03-07T07:05:07;102519.97;;;4.84;100.00
11440;BME280;5776;51.814;4.510;2024-03-07T07:07:40;102526.97;;;4.85;100.00
11440;BME280;5776;51.814;4.510;2024-03-07T07:10:08;102525.34;;;4.84;100.00
11440;BME280;5776;51.814;4.510;2024-03-07T07:12:45;102520.78;;;4.85;100.00
11440;BME280;5776;51.814;4.510;2024-03-07T07:15:13;102518.72;;;4.87;100.00
11440;BME280;5776;51.814;4.510;2024-03-07T07:17:43;102525.13;;;4.86;100.00
11440;BME280;5776;51.814;4.510;2024-03-07T07:20:11;102523.69;;;4.70;100.00
11440;BME280;5776;51.814;4.510;2024-03-07T07:22:39;102522.84;;;4.63;100.00
11440;BME280;5776;51.814;4.510;2024-03-07T07:25:06;102517.88;;;4.60;100.00
11440;BME280;5776;51.814;4.510;2024-03-07T07:27:49;102522.03;;;4.62;100.00
11440;BME280;5776;51.814;4.510;2024-03-07T07:30:16;102524.50;;;4.64;100.00
11440;BME280;5776;51.814;4.510;2024-03-07T07:32:43;102521.59;;;4.65;100.00
11440;BME280;5776;51.814;4.510;2024-03-07T07:35:10;102518.31;;;4.70;100.00
11440;BME280;5776;51.814;4.510;2024-03-07T07:37:41;102520.78;;;4.78;100.00
11440;BME280;5776;51.814;4.510;2024-03-07T07:40:09;102516.63;;;4.82;100.00
11440;BME280;5776;51.814;4.510;2024-03-07T07:42:38;102525.34;;;4.84;100.00
11440;BME280;5776;51.814;4.510;2024-03-07T07:45:11;102511.66;;;4.86;100.00
11440;BME280;5776;51.814;4.510;2024-03-07T07:47:41;102518.28;;;4.90;100.00
11440;BME280;5776;51.814;4.510;2024-03-07T07:50:09;102519.09;;;4.90;100.00
11440;BME280;5776;51.814;4.510;2024-03-07T07:52:48;102515.38;;;4.91;100.00
11440;BME280;5776;51.814;4.510;2024-03-07T07:55:16;102514.75;;;4.96;100.00
11440;BME280;5776;51.814;4.510;2024-03-07T07:57:44;102513.06;;;5.08;100.00
11440;BME280;5776;51.814;4.510;2024-03-07T08:00:12;102508.69;;;5.14;100.00
11440;BME280;5776;51.814;4.510;2024-03-07T08:02:38;102509.13;;;5.17;100.00
11440;BME280;5776;51.814;4.510;2024-03-07T08:05:04;102507.44;;;5.30;100.00
11440;BME280;5776;51.814;4.510;2024-03-07T08:07:31;102513.03;;;5.28;100.00
11440;BME280;5776;51.814;4.510;2024-03-07T08:09:57;102502.47;;;5.27;100.00
11440;BME280;5776;51.814;4.510;2024-03-07T08:12:23;102515.72;;;5.28;100.00
11440;BME280;5776;51.814;4.510;2024-03-07T08:14:49;102514.69;;;5.29;100.00
11440;BME280;5776;51.814;4.510;2024-03-07T08:17:14;102512.16;;;5.41;100.00
11440;BME280;5776;51.814;4.510;2024-03-07T08:19:40;102508.25;;;5.37;100.00
11440;BME280;5776;51.814;4.510;2024-03-07T08:22:06;102508.88;;;5.32;100.00
11440;BME280;5776;51.814;4.510;2024-03-07T08:24:32;102510.53;;;5.33;100.00
11440;BME280;5776;51.814;4.510;2024-03-07T08:26:58;102503.25;;;5.34;100.00
11440;BME280;5776;51.814;4.510;2024-03-07T08:29:24;102504.69;;;5.36;100.00
11440;BME280;5776;51.814;4.510;2024-03-07T08:31:50;102505.56;;;5.37;100.00
11440;BME280;5776;51.814;4.510;2024-03-07T08:34:16;102499.94;;;5.38;100.00
11440;BME280;5776;51.814;4.510;2024-03-07T08:36:42;102498.91;;;5.39;100.00
11440;BME280;5776;51.814;4.510;2024-03-07T08:39:07;102504.06;;;5.41;100.00
11440;BME280;5776;51.814;4.510;2024-03-07T08:41:37;102497.22;;;5.45;100.00
11440;BME280;5776;51.814;4.510;2024-03-07T08:44:06;102505.69;;;5.49;100.00
11440;BME280;5776;51.814;4.510;2024-03-07T08:46:33;102498.22;;;5.51;100.00
11440;BME280;5776;51.814;4.510;2024-03-07T08:48:59;102495.66;;;5.69;100.00
11440;BME280;5776;51.814;4.510;2024-03-07T08:51:25;102487.38;;;5.71;100.00
11440;BME280;5776;51.814;4.510;2024-03-07T08:53:51;102491.69;;;5.72;100.00
11440;BME280;5776;51.814;4.510;2024-03-07T08:56:16;102493.81;;;5.70;100.00
11440;BME280;5776;51.814;4.510;2024-03-07T08:58:42;102487.97;;;5.73;100.00
11440;BME280;5776;51.814;4.510;2024-03-07T09:01:09;102486.72;;;5.75;100.00
11440;BME280;5776;51.814;4.510;2024-03-07T09:03:35;102481.13;;;5.77;100.00
11440;BME280;5776;51.814;4.510;2024-03-07T09:06:01;102481.94;;;5.77;100.00
11440;BME280;5776;51.814;4.510;2024-03-07T09:08:29;102486.50;;;5.77;100.00
11440;BME280;5776;51.814;4.510;2024-03-07T09:10:55;102482.75;;;5.84;100.00
11440;BME280;5776;51.814;4.510;2024-03-07T09:13:21;102488.06;;;5.91;100.00
11440;BME280;5776;51.814;4.510;2024-03-07T09:15:47;102482.28;;;5.94;100.00
11440;BME280;5776;51.814;4.510;2024-03-07T09:18:13;102481.88;;;5.97;100.00
11440;BME280;5776;51.814;4.510;2024-03-07T09:20:39;102479.16;;;5.97;100.00
11440;BME280;5776;51.814;4.510;2024-03-07T09:23:05;102474.59;;;5.98;100.00
11440;BME280;5776;51.814;4.510;2024-03-07T09:25:31;102474.16;;;6.01;100.00
11440;BME280;5776;51.814;4.510;2024-03-07T09:27:59;102477.63;;;6.08;100.00
11440;BME280;5776;51.814;4.510;2024-03-07T09:30:26;102478.88;;;6.12;100.00
11440;BME280;5776;51.814;4.510;2024-03-07T09:32:54;102480.22;;;6.21;100.00
11440;BME280;5776;51.814;4.510;2024-03-07T09:35:23;102472.75;;;6.23;100.00
11440;BME280;5776;51.814;4.510;2024-03-07T09:37:49;102465.47;;;6.24;100.00
11440;BME280;5776;51.814;4.510;2024-03-07T09:40:15;102462.13;;;6.28;100.00
11440;BME280;5776;51.814;4.510;2024-03-07T09:42:46;102463.34;;;6.33;100.00
11440;BME280;5776;51.814;4.510;2024-03-07T09:45:15;102466.22;;;6.38;100.00
11440;BME280;5776;51.814;4.510;2024-03-07T09:47:45;102462.00;;;6.42;100.00
11440;BME280;5776;51.814;4.510;2024-03-07T09:50:13;102454.16;;;6.40;100.00
11440;BME280;5776;51.814;4.510;2024-03-07T09:52:41;102456.19;;;6.45;100.00
11440;BME280;5776;51.814;4.510;2024-03-07T09:55:07;102458.41;;;6.55;100.00
11440;BME280;5776;51.814;4.510;2024-03-07T09:57:34;102455.47;;;6.56;100.00
11440;BME280;5776;51.814;4.510;2024-03-07T10:00:02;102458.16;;;6.56;100.00
11440;BME280;5776;51.814;4.510;2024-03-07T10:02:31;102445.88;;;6.60;100.00
11440;BME280;5776;51.814;4.510;2024-03-07T10:05:01;102449.78;;;6.64;100.00
11440;BME280;5776;51.814;4.510;2024-03-07T10:07:28;102451.44;;;6.65;100.00
11440;BME280;5776;51.814;4.510;2024-03-07T10:09:54;102442.06;;;6.68;100.00
11440;BME280;5776;51.814;4.510;2024-03-07T10:12:22;102447.84;;;6.71;100.00
11440;BME280;5776;51.814;4.510;2024-03-07T10:14:49;102439.31;;;6.75;100.00
11440;BME280;5776;51.814;4.510;2024-03-07T10:17:18;102442.59;;;6.77;100.00
11440;BME280;5776;51.814;4.510;2024-03-07T10:19:47;102452.13;;;6.79;100.00
11440;BME280;5776;51.814;4.510;2024-03-07T10:22:15;102445.44;;;6.82;100.00
11440;BME280;5776;51.814;4.510;2024-03-07T10:24:52;102435.25;;;6.84;100.00
11440;BME280;5776;51.814;4.510;2024-03-07T10:27:20;102437.50;;;6.87;100.00
11440;BME280;5776;51.814;4.510;2024-03-07T10:29:47;102430.59;;;6.91;100.00
11440;BME280;5776;51.814;4.510;2024-03-07T10:32:19;102432.84;;;6.94;100.00
11440;BME280;5776;51.814;4.510;2024-03-07T10:34:46;102441.88;;;7.06;100.00
11440;BME280;5776;51.814;4.510;2024-03-07T10:37:17;102435.19;;;7.09;100.00
11440;BME280;5776;51.814;4.510;2024-03-07T10:39:45;102426.25;;;7.08;100.00
11440;BME280;5776;51.814;4.510;2024-03-07T10:42:16;102420.84;;;7.08;100.00
11440;BME280;5776;51.814;4.510;2024-03-07T10:44:46;102414.78;;;7.13;100.00
11440;BME280;5776;51.814;4.510;2024-03-07T10:47:17;102422.78;;;7.20;100.00
11440;BME280;5776;51.814;4.510;2024-03-07T10:52:49;102417.09;;;7.28;100.00
11440;BME280;5776;51.814;4.510;2024-03-07T10:55:34;102414.16;;;7.29;100.00
11440;BME280;5776;51.814;4.510;2024-03-07T10:58:15;102411.81;;;7.33;100.00
11440;BME280;5776;51.814;4.510;2024-03-07T11:00:47;102414.06;;;7.36;100.00
11440;BME280;5776;51.814;4.510;2024-03-07T11:03:14;102416.09;;;7.41;100.00
11440;BME280;5776;51.814;4.510;2024-03-07T11:05:41;102415.28;;;7.40;100.00
11440;BME280;5776;51.814;4.510;2024-03-07T11:08:09;102405.88;;;7.43;100.00
11440;BME280;5776;51.814;4.510;2024-03-07T11:10:39;102404.59;;;7.45;100.00
11440;BME280;5776;51.814;4.510;2024-03-07T11:13:09;102399.75;;;7.47;100.00
11440;BME280;5776;51.814;4.510;2024-03-07T11:15:38;102399.53;;;7.49;100.00
11440;BME280;5776;51.814;4.510;2024-03-07T11:18:05;102388.66;;;7.55;100.00
11440;BME280;5776;51.814;4.510;2024-03-07T11:20:36;102390.28;;;7.56;100.00
11440;BME280;5776;51.814;4.510;2024-03-07T11:26:06;102392.44;;;7.66;100.00
11440;BME280;5776;51.814;4.510;2024-03-07T11:28:37;102382.81;;;7.70;100.00
11440;BME280;5776;51.814;4.510;2024-03-07T11:31:25;102384.47;;;7.71;100.00
11440;BME280;5776;51.814;4.510;2024-03-07T11:34:13;102375.06;;;7.74;100.00
11440;BME280;5776;51.814;4.510;2024-03-07T11:36:45;102373.16;;;7.74;100.00
11440;BME280;5776;51.814;4.510;2024-03-07T11:39:46;102370.84;;;7.78;100.00
11440;BME280;5776;51.814;4.510;2024-03-07T11:42:26;102368.13;;;7.78;100.00
11440;BME280;5776;51.814;4.510;2024-03-07T11:44:53;102357.44;;;7.83;100.00
11440;BME280;5776;51.814;4.510;2024-03-07T11:47:22;102353.44;;;7.86;100.00
11440;BME280;5776;51.814;4.510;2024-03-07T11:49:52;102354.88;;;7.88;100.00
11440;BME280;5776;51.814;4.510;2024-03-07T11:52:19;102350.06;;;7.90;100.00
11440;BME280;5776;51.814;4.510;2024-03-07T11:54:45;102343.22;;;7.99;100.00
11440;BME280;5776;51.814;4.510;2024-03-07T11:57:17;102342.41;;;7.99;100.00
11440;BME280;5776;51.814;4.510;2024-03-07T11:59:46;102336.19;;;7.98;100.00
11440;BME280;5776;51.814;4.510;2024-03-07T12:02:13;102339.00;;;8.04;100.00
11440;BME280;5776;51.814;4.510;2024-03-07T12:04:41;102324.41;;;8.05;100.00
11440;BME280;5776;51.814;4.510;2024-03-07T12:07:07;102323.69;;;8.09;100.00
11440;BME280;5776;51.814;4.510;2024-03-07T12:09:39;102320.66;;;8.06;100.00
11440;BME280;5776;51.814;4.510;2024-03-07T12:12:05;102316.19;;;8.11;100.00
11440;BME280;5776;51.814;4.510;2024-03-07T12:14:32;102309.94;;;8.11;100.00
11440;BME280;5776;51.814;4.510;2024-03-07T12:17:01;102303.47;;;8.12;100.00
11440;BME280;5776;51.814;4.510;2024-03-07T12:19:33;102301.94;;;8.16;100.00
11440;BME280;5776;51.814;4.510;2024-03-07T12:22:02;102306.28;;;8.17;100.00
11440;BME280;5776;51.814;4.510;2024-03-07T12:24:30;102299.84;;;8.18;100.00
11440;BME280;5776;51.814;4.510;2024-03-07T12:27:09;102295.47;;;8.17;100.00
11440;BME280;5776;51.814;4.510;2024-03-07T12:29:36;102296.06;;;8.19;100.00
11440;BME280;5776;51.814;4.510;2024-03-07T12:32:06;102285.81;;;8.21;100.00
11440;BME280;5776;51.814;4.510;2024-03-07T12:34:43;102278.19;;;8.18;100.00
11440;BME280;5776;51.814;4.510;2024-03-07T12:37:12;102279.00;;;8.18;100.00
11440;BME280;5776;51.814;4.510;2024-03-07T12:39:43;102279.81;;;8.19;100.00
11440;BME280;5776;51.814;4.510;2024-03-07T12:42:13;102269.59;;;8.21;100.00
11440;BME280;5776;51.814;4.510;2024-03-07T12:44:44;102271.22;;;8.22;100.00
11440;BME280;5776;51.814;4.510;2024-03-07T12:47:14;102262.66;;;8.25;100.00
11440;BME280;5776;51.814;4.510;2024-03-07T12:49:42;102262.06;;;8.23;100.00
11440;BME280;5776;51.814;4.510;2024-03-07T12:52:08;102263.47;;;8.26;100.00
11440;BME280;5776;51.814;4.510;2024-03-07T12:54:35;102251.81;;;8.25;100.00
11440;BME280;5776;51.814;4.510;2024-03-07T12:57:07;102256.16;;;8.26;100.00
11440;BME280;5776;51.814;4.510;2024-03-07T12:59:40;102246.97;;;8.27;100.00
11440;BME280;5776;51.814;4.510;2024-03-07T13:02:10;102248.63;;;8.28;100.00
11440;BME280;5776;51.814;4.510;2024-03-07T13:04:37;102241.91;;;8.31;100.00
11440;BME280;5776;51.814;4.510;2024-03-07T13:07:06;102237.91;;;8.33;100.00
11440;BME280;5776;51.814;4.510;2024-03-07T13:09:34;102232.22;;;8.35;100.00